createdAt,value
2022-09-26T00:00:00.128Z,26.83
2022-09-26T00:02:02.131Z,30.92
2022-09-26T00:04:14.034Z,25.10
2022-09-26T00:06:17.845Z,23.02
2022-09-26T00:08:19.870Z,23.95
2022-09-26T00:10:21.841Z,27.40
2022-09-26T00:12:23.813Z,25.05
2022-09-26T00:14:28.323Z,19.08
2022-09-26T00:16:30.398Z,24.70
2022-09-26T00:18:32.411Z,25.80
2022-09-26T00:20:36.910Z,24.48
2022-09-26T00:22:38.848Z,24.90
2022-09-26T00:24:40.814Z,28.63
2022-09-26T00:26:42.786Z,28.40
2022-09-26T00:28:44.738Z,24.15
2022-09-26T00:30:46.742Z,28.77
2022-09-26T00:32:48.953Z,24.38
2022-09-26T00:34:50.892Z,24.92
2022-09-26T00:36:52.894Z,24.95
2022-09-26T00:38:54.993Z,35.40
2022-09-26T00:40:57.022Z,25.55
2022-09-26T00:42:59.178Z,27.17
2022-09-26T00:45:01.168Z,32.08
2022-09-26T00:47:03.384Z,27.48
2022-09-26T00:49:25.605Z,29.35
2022-09-26T00:51:27.605Z,29.38
2022-09-26T00:53:42.066Z,29.85
2022-09-26T00:55:51.349Z,32.20
2022-09-26T00:58:16.982Z,27.08
2022-09-26T01:00:19.032Z,29.17
2022-09-26T01:02:21.790Z,33.60
2022-09-26T01:04:25.874Z,26.25
2022-09-26T01:06:27.888Z,30.77
2022-09-26T01:08:39.198Z,31.75
2022-09-26T01:10:41.727Z,30.70
2022-09-26T01:12:44.112Z,33.50
2022-09-26T01:14:46.142Z,38.88
2022-09-26T01:16:49.118Z,39.20
2022-09-26T01:18:51.459Z,32.15
2022-09-26T01:21:16.243Z,30.35
2022-09-26T01:23:34.255Z,33.45
2022-09-26T01:26:14.814Z,25.67
2022-09-26T01:28:59.431Z,35.00
2022-09-26T01:31:23.801Z,30.30
2022-09-26T01:33:49.683Z,33.55
2022-09-26T01:36:02.057Z,29.58
2022-09-26T01:38:15.781Z,30.40
2022-09-26T01:40:42.141Z,31.10
2022-09-26T01:43:20.156Z,30.55
2022-09-26T01:45:23.121Z,28.35
2022-09-26T01:47:40.014Z,40.60
2022-09-26T01:49:55.264Z,37.72
2022-09-26T01:52:20.953Z,36.83
2022-09-26T01:54:43.107Z,30.50
2022-09-26T01:56:45.665Z,33.58
2022-09-26T01:59:24.066Z,34.90
2022-09-26T02:01:27.695Z,32.33
2022-09-26T02:03:32.328Z,33.28
2022-09-26T02:05:42.049Z,42.70
2022-09-26T02:08:13.379Z,36.75
2022-09-26T02:10:27.656Z,32.30
2022-09-26T02:12:36.800Z,31.77
2022-09-26T02:14:39.635Z,36.92
2022-09-26T02:16:49.406Z,36.45
2022-09-26T02:18:58.862Z,32.25
2022-09-26T02:21:15.653Z,33.03
2022-09-26T02:23:17.615Z,32.28
2022-09-26T02:25:19.572Z,34.75
2022-09-26T02:27:21.729Z,33.83
2022-09-26T02:29:23.678Z,35.90
2022-09-26T02:31:27.788Z,29.92
2022-09-26T02:33:29.806Z,30.83
2022-09-26T02:35:50.260Z,27.98
2022-09-26T02:37:52.575Z,32.47
2022-09-26T02:39:55.161Z,32.75
2022-09-26T02:42:13.239Z,33.72
2022-09-26T02:44:41.832Z,32.22
2022-09-26T02:46:51.473Z,35.70
2022-09-26T02:49:17.352Z,32.63
2022-09-26T02:51:49.898Z,31.10
2022-09-26T02:54:20.264Z,35.20
2022-09-26T02:56:48.085Z,34.75
2022-09-26T02:59:22.732Z,35.53
2022-09-26T03:01:40.280Z,36.20
2022-09-26T03:03:53.978Z,33.30
2022-09-26T03:05:57.764Z,40.15
2022-09-26T03:08:09.447Z,35.50
2022-09-26T03:10:11.718Z,35.95
2022-09-26T03:12:13.666Z,37.15
2022-09-26T03:14:15.793Z,33.92
2022-09-26T03:16:17.889Z,40.08
2022-09-26T03:18:22.217Z,36.38
2022-09-26T03:20:24.894Z,37.42
2022-09-26T03:22:26.895Z,37.03
2022-09-26T03:24:28.846Z,36.17
2022-09-26T03:26:30.798Z,32.00
2022-09-26T03:28:37.421Z,34.78
2022-09-26T03:30:39.945Z,34.88
2022-09-26T03:32:41.940Z,32.95
2022-09-26T03:34:43.935Z,35.58
2022-09-26T03:36:45.963Z,38.25
2022-09-26T03:38:47.930Z,38.10
2022-09-26T03:40:50.004Z,34.72
2022-09-26T03:42:52.023Z,39.63
2022-09-26T03:44:54.041Z,34.97
2022-09-26T03:46:55.993Z,34.58
2022-09-26T03:48:59.116Z,38.05
2022-09-26T03:51:05.776Z,36.72
2022-09-26T03:53:07.731Z,36.28
2022-09-26T03:55:09.846Z,35.22
2022-09-26T03:57:13.316Z,36.53
2022-09-26T03:59:15.553Z,34.85
2022-09-26T04:01:19.786Z,36.22
2022-09-26T04:03:21.853Z,45.55
2022-09-26T04:05:23.822Z,35.15
2022-09-26T04:07:25.864Z,37.25
2022-09-26T04:09:27.830Z,37.47
2022-09-26T04:11:29.778Z,32.47
2022-09-26T04:13:50.598Z,37.60
2022-09-26T04:16:01.188Z,36.30
2022-09-26T04:18:03.165Z,38.63
2022-09-26T04:20:05.510Z,41.15
2022-09-26T04:22:10.268Z,42.08
2022-09-26T04:24:15.747Z,35.33
2022-09-26T04:26:22.871Z,42.97
2022-09-26T04:28:25.477Z,38.95
2022-09-26T04:30:27.439Z,38.85
2022-09-26T04:32:29.415Z,39.72
2022-09-26T04:34:31.383Z,42.35
2022-09-26T04:36:33.463Z,45.22
2022-09-26T04:38:35.474Z,38.25
2022-09-26T04:40:42.078Z,37.67
2022-09-26T04:42:44.808Z,34.88
2022-09-26T04:44:48.325Z,43.03
2022-09-26T04:46:50.385Z,41.72
2022-09-26T04:48:53.038Z,45.17
2022-09-26T04:50:55.092Z,44.17
2022-09-26T04:52:57.047Z,45.15
2022-09-26T04:54:59.001Z,39.35
2022-09-26T04:57:01.260Z,39.40
2022-09-26T04:59:03.267Z,37.65
2022-09-26T05:01:07.324Z,42.33
2022-09-26T05:03:09.749Z,45.75
2022-09-26T05:05:12.702Z,36.70
2022-09-26T05:07:16.375Z,38.88
2022-09-26T05:09:18.321Z,43.00
2022-09-26T05:11:21.566Z,42.63
2022-09-26T05:13:24.311Z,47.05
2022-09-26T05:17:28.128Z,46.45
2022-09-26T05:19:30.112Z,44.67
2022-09-26T05:21:32.075Z,45.40
2022-09-26T05:23:53.096Z,40.20
2022-09-26T05:26:13.861Z,39.03
2022-09-26T05:28:15.886Z,38.88
2022-09-26T05:30:17.875Z,45.15
2022-09-26T05:32:20.824Z,44.90
2022-09-26T05:34:25.010Z,44.50
2022-09-26T05:36:27.138Z,43.20
2022-09-26T05:38:29.102Z,41.42
2022-09-26T05:40:50.057Z,40.67
2022-09-26T05:42:52.048Z,38.97
2022-09-26T05:44:53.997Z,42.30
2022-09-26T05:46:57.496Z,37.25
2022-09-26T05:48:59.551Z,45.55
2022-09-26T05:51:13.295Z,43.95
2022-09-26T05:53:15.269Z,45.80
2022-09-26T05:55:17.413Z,45.35
2022-09-26T05:57:19.379Z,43.38
2022-09-26T05:59:21.744Z,42.65
2022-09-26T06:01:24.462Z,52.03
2022-09-26T06:07:32.908Z,40.03
2022-09-26T06:11:36.709Z,52.13
2022-09-26T06:13:38.808Z,50.78
2022-09-26T06:15:43.269Z,49.85
2022-09-26T06:17:45.732Z,52.58
2022-09-26T06:19:47.681Z,49.58
2022-09-26T06:21:50.118Z,45.80
2022-09-26T06:23:52.102Z,55.50
2022-09-26T06:25:54.060Z,51.00
2022-09-26T06:27:59.959Z,47.47
2022-09-26T06:30:02.349Z,47.00
2022-09-26T06:32:04.795Z,43.90
2022-09-26T06:34:07.938Z,41.97
2022-09-26T06:36:11.327Z,45.28
2022-09-26T06:38:13.355Z,51.13
2022-09-26T06:40:15.658Z,47.95
2022-09-26T06:42:17.660Z,43.35
2022-09-26T06:44:19.612Z,49.17
2022-09-26T06:46:21.824Z,51.00
2022-09-26T06:48:25.222Z,49.80
2022-09-26T06:50:27.217Z,43.00
2022-09-26T06:52:34.930Z,46.60
2022-09-26T06:54:36.979Z,51.22
2022-09-26T06:56:38.928Z,43.22
2022-09-26T06:58:41.845Z,39.63
2022-09-26T07:00:44.252Z,40.83
2022-09-26T07:02:54.119Z,40.05
2022-09-26T07:04:56.539Z,45.22
2022-09-26T07:06:59.896Z,43.88
2022-09-26T07:09:04.626Z,37.80
2022-09-26T07:11:31.213Z,40.28
2022-09-26T07:13:29.437Z,34.40
2022-09-26T07:17:35.073Z,37.25
2022-09-26T07:19:37.075Z,42.50
2022-09-26T07:21:39.437Z,37.53
2022-09-26T07:23:41.418Z,38.35
2022-09-26T07:25:46.959Z,37.15
2022-09-26T07:27:52.364Z,36.30
2022-09-26T07:29:54.333Z,38.05
2022-09-26T07:31:56.678Z,38.83
2022-09-26T07:33:58.663Z,35.88
2022-09-26T07:36:05.207Z,29.35
2022-09-26T07:38:07.586Z,33.55
2022-09-26T07:40:10.929Z,33.42
2022-09-26T07:42:13.850Z,35.58
2022-09-26T07:45:29.112Z,33.35
2022-09-26T07:46:56.724Z,32.30
2022-09-26T07:49:17.331Z,38.75
2022-09-26T07:51:19.879Z,33.38
2022-09-26T07:53:21.865Z,35.70
2022-09-26T07:55:27.799Z,32.90
2022-09-26T07:57:33.134Z,37.75
2022-09-26T07:59:35.855Z,33.30
2022-09-26T08:03:45.451Z,30.92
2022-09-26T08:05:47.430Z,33.10
2022-09-26T08:07:49.512Z,34.33
2022-09-26T08:09:54.146Z,33.67
2022-09-26T08:11:56.336Z,36.00
2022-09-26T08:13:58.291Z,32.65
2022-09-26T08:16:04.817Z,38.72
2022-09-26T08:18:07.044Z,32.92
2022-09-26T08:20:09.494Z,33.00
2022-09-26T08:22:11.921Z,30.10
2022-09-26T08:24:14.107Z,31.63
2022-09-26T08:26:16.194Z,33.05
2022-09-26T08:28:18.351Z,40.40
2022-09-26T08:30:21.803Z,29.65
2022-09-26T08:32:23.961Z,29.05
2022-09-26T08:34:26.026Z,30.80
2022-09-26T08:36:28.020Z,30.90
2022-09-26T08:38:30.432Z,27.98
2022-09-26T08:40:50.360Z,27.95
2022-09-26T08:43:04.307Z,28.38
2022-09-26T08:45:55.464Z,26.65
2022-09-26T08:48:20.868Z,24.95
2022-09-26T08:50:46.043Z,26.92
2022-09-26T08:52:56.301Z,29.60
2022-09-26T08:55:01.787Z,31.02
2022-09-26T08:57:14.596Z,25.58
2022-09-26T08:59:44.179Z,22.90
2022-09-26T09:01:46.751Z,26.83
2022-09-26T09:06:16.129Z,29.25
2022-09-26T09:08:22.561Z,22.40
2022-09-26T09:10:47.460Z,22.40
2022-09-26T09:13:01.100Z,26.08
2022-09-26T09:15:36.017Z,25.63
2022-09-26T09:18:18.677Z,25.88
2022-09-26T09:20:54.736Z,19.15
2022-09-26T09:23:23.373Z,25.25
2022-09-26T09:25:32.804Z,21.90
2022-09-26T09:27:54.235Z,21.10
2022-09-26T09:30:23.998Z,20.95
2022-09-26T09:32:31.096Z,29.02
2022-09-26T09:34:38.405Z,26.75
2022-09-26T09:36:46.470Z,27.38
2022-09-26T09:38:49.212Z,20.23
2022-09-26T09:43:11.756Z,18.95
2022-09-26T09:45:39.290Z,17.42
2022-09-26T09:47:41.261Z,21.50
2022-09-26T09:49:48.259Z,21.35
2022-09-26T09:52:13.723Z,21.77
2022-09-26T09:54:55.636Z,20.63
2022-09-26T09:57:31.787Z,20.60
2022-09-26T10:00:12.957Z,23.00
2022-09-26T10:02:21.728Z,17.65
2022-09-26T10:04:46.628Z,20.08
2022-09-26T10:06:48.611Z,16.75
2022-09-26T10:08:50.696Z,22.33
2022-09-26T10:11:19.485Z,18.52
2022-09-26T10:13:24.116Z,21.00
2022-09-26T10:15:27.368Z,17.95
2022-09-26T10:17:29.605Z,21.67
2022-09-26T10:19:39.130Z,16.83
2022-09-26T10:21:43.296Z,18.90
2022-09-26T10:23:50.433Z,16.63
2022-09-26T10:25:55.491Z,20.40
2022-09-26T10:27:57.797Z,16.90
2022-09-26T10:30:21.105Z,18.13
2022-09-26T10:32:23.133Z,17.05
2022-09-26T10:34:33.014Z,20.15
2022-09-26T10:36:37.460Z,19.35
2022-09-26T10:39:11.305Z,15.38
2022-09-26T10:41:23.945Z,19.52
2022-09-26T10:43:32.963Z,16.15
2022-09-26T10:45:35.263Z,14.38
2022-09-26T10:47:37.633Z,13.10
2022-09-26T10:49:56.406Z,14.10
2022-09-26T10:52:11.689Z,13.82
2022-09-26T10:54:20.142Z,17.92
2022-09-26T10:56:29.319Z,11.55
2022-09-26T10:58:32.469Z,16.80
2022-09-26T11:00:36.881Z,15.55
2022-09-26T11:02:38.942Z,15.60
2022-09-26T11:05:04.863Z,15.73
2022-09-26T11:07:09.344Z,14.70
2022-09-26T11:09:11.432Z,14.73
2022-09-26T11:11:15.253Z,11.43
2022-09-26T11:13:18.929Z,10.43
2022-09-26T11:15:20.944Z,10.55
2022-09-26T11:17:28.336Z,10.98
2022-09-26T11:19:54.640Z,9.75
2022-09-26T11:22:27.491Z,10.68
2022-09-26T11:24:51.751Z,11.15
2022-09-26T11:27:16.038Z,16.10
2022-09-26T11:29:28.636Z,10.07
2022-09-26T11:31:35.876Z,12.77
2022-09-26T11:33:45.041Z,9.60
2022-09-26T11:35:58.741Z,13.45
2022-09-26T11:39:11.878Z,10.73
2022-09-26T11:41:38.581Z,8.77
2022-09-26T11:44:00.550Z,8.85
2022-09-26T11:46:44.358Z,8.55
2022-09-26T11:49:13.152Z,11.90
2022-09-26T11:51:43.683Z,8.88
2022-09-26T11:53:48.423Z,9.25
2022-09-26T11:56:08.191Z,7.60
2022-09-26T11:58:38.410Z,9.00
2022-09-26T12:00:58.060Z,6.78
2022-09-26T12:03:33.515Z,5.28
2022-09-26T12:05:50.679Z,5.32
2022-09-26T12:08:00.686Z,8.15
2022-09-26T12:10:24.503Z,7.25
2022-09-26T12:13:01.263Z,7.18
2022-09-26T12:15:22.023Z,6.55
2022-09-26T12:18:06.797Z,9.38
2022-09-26T12:20:28.547Z,10.02
2022-09-26T12:23:04.851Z,7.20
2022-09-26T12:25:09.307Z,6.65
2022-09-26T12:27:30.283Z,8.57
2022-09-26T12:29:55.707Z,9.10
2022-09-26T12:32:32.616Z,8.65
2022-09-26T12:34:40.160Z,7.05
2022-09-26T12:37:26.351Z,6.97
2022-09-26T12:39:49.195Z,6.55
2022-09-26T12:42:18.497Z,8.60
2022-09-26T12:44:27.261Z,10.27
2022-09-26T12:47:07.220Z,9.57
2022-09-26T12:49:58.299Z,10.55
2022-09-26T12:52:14.514Z,10.02
2022-09-26T12:54:42.179Z,7.00
2022-09-26T12:57:11.762Z,7.80
2022-09-26T12:59:38.886Z,8.45
2022-09-26T13:02:12.637Z,11.68
2022-09-26T13:04:54.528Z,8.18
2022-09-26T13:07:17.829Z,12.05
2022-09-26T13:09:35.916Z,9.13
2022-09-26T13:12:18.522Z,8.48
2022-09-26T13:15:02.935Z,11.93
2022-09-26T13:17:21.676Z,7.53
2022-09-26T13:19:52.885Z,6.68
2022-09-26T13:22:22.112Z,6.57
2022-09-26T13:24:28.532Z,6.13
2022-09-26T13:26:38.410Z,6.03
2022-09-26T13:29:18.023Z,9.02
2022-09-26T13:31:40.552Z,6.05
2022-09-26T13:34:14.923Z,5.60
2022-09-26T13:36:17.880Z,9.60
2022-09-26T13:38:45.971Z,4.53
2022-09-26T13:40:51.700Z,4.53
2022-09-26T13:43:11.196Z,5.00
2022-09-26T13:45:30.345Z,4.00
2022-09-26T13:48:17.915Z,6.30
2022-09-26T13:50:45.239Z,3.17
2022-09-26T13:53:08.594Z,5.07
2022-09-26T13:55:11.476Z,5.10
2022-09-26T13:57:46.861Z,7.63
2022-09-26T13:59:52.601Z,4.03
2022-09-26T14:02:24.601Z,8.15
2022-09-26T14:04:36.177Z,4.10
2022-09-26T14:06:38.131Z,7.28
2022-09-26T14:09:19.094Z,4.68
2022-09-26T14:11:34.307Z,6.10
2022-09-26T14:13:37.127Z,3.63
2022-09-26T14:15:50.524Z,4.45
2022-09-26T14:17:52.357Z,4.80
2022-09-26T14:19:54.437Z,4.18
2022-09-26T14:22:31.706Z,6.32
2022-09-26T14:24:43.412Z,5.07
2022-09-26T14:26:45.709Z,5.45
2022-09-26T14:28:55.365Z,4.95
2022-09-26T14:31:11.263Z,4.57
2022-09-26T14:33:14.983Z,7.32
2022-09-26T14:35:28.906Z,8.07
2022-09-26T14:37:46.065Z,5.30
2022-09-26T14:39:48.035Z,5.30
2022-09-26T14:41:49.998Z,3.00
2022-09-26T14:43:52.004Z,4.07
2022-09-26T14:46:05.288Z,5.63
2022-09-26T14:48:26.967Z,6.50
2022-09-26T14:50:34.478Z,10.00
2022-09-26T14:52:37.697Z,6.68
2022-09-26T14:54:40.098Z,3.38
2022-09-26T14:56:47.628Z,6.32
2022-09-26T14:58:51.621Z,5.82
2022-09-26T15:00:53.613Z,8.57
2022-09-26T15:02:58.841Z,6.03
2022-09-26T15:05:08.800Z,7.28
2022-09-26T15:07:19.667Z,7.20
2022-09-26T15:09:29.593Z,7.28
2022-09-26T15:11:44.194Z,8.20
2022-09-26T15:13:47.556Z,6.82
2022-09-26T15:16:08.011Z,9.35
2022-09-26T15:18:24.540Z,11.38
2022-09-26T15:20:27.658Z,9.55
2022-09-26T15:22:30.058Z,8.77
2022-09-26T15:24:36.790Z,6.18
2022-09-26T15:26:38.807Z,8.93
2022-09-26T15:28:40.793Z,8.88
2022-09-26T15:30:42.844Z,6.35
2022-09-26T15:32:46.465Z,6.13
2022-09-26T15:34:48.484Z,6.03
2022-09-26T15:36:57.339Z,8.75
2022-09-26T15:38:59.415Z,7.30
2022-09-26T15:41:02.393Z,6.38
2022-09-26T15:43:20.481Z,5.25
2022-09-26T15:45:35.701Z,5.88
2022-09-26T15:47:41.887Z,9.77
2022-09-26T15:49:43.839Z,10.93
2022-09-26T15:51:45.940Z,11.13
2022-09-26T15:53:53.816Z,9.73
2022-09-26T15:56:07.579Z,7.03
2022-09-26T15:58:14.000Z,7.00
2022-09-26T16:00:16.216Z,7.53
2022-09-26T16:02:29.884Z,5.82
2022-09-26T16:04:32.108Z,10.73
2022-09-26T16:06:36.477Z,4.63
2022-09-26T16:08:40.446Z,5.90
2022-09-26T16:10:42.660Z,8.88
2022-09-26T16:12:45.184Z,9.02
2022-09-26T16:15:08.155Z,5.47
2022-09-26T16:17:24.828Z,7.50
2022-09-26T16:19:35.306Z,7.05
2022-09-26T16:21:39.282Z,7.18
2022-09-26T16:23:54.780Z,6.53
2022-09-26T16:25:58.188Z,5.13
2022-09-26T16:28:09.133Z,9.77
2022-09-26T16:30:25.674Z,7.82
2022-09-26T16:32:27.639Z,7.57
2022-09-26T16:34:30.255Z,7.97
2022-09-26T16:36:35.016Z,8.48
2022-09-26T16:38:37.075Z,7.18
2022-09-26T16:40:39.184Z,6.55
2022-09-26T16:42:41.134Z,7.78
2022-09-26T16:44:50.328Z,5.53
2022-09-26T16:46:53.860Z,11.77
2022-09-26T16:48:56.943Z,5.72
2022-09-26T16:51:22.746Z,9.90
2022-09-26T16:53:25.871Z,7.20
2022-09-26T16:55:27.872Z,9.68
2022-09-26T16:57:36.839Z,8.98
2022-09-26T16:59:38.784Z,7.45
2022-09-26T17:01:55.870Z,6.75
2022-09-26T17:03:58.051Z,6.68
2022-09-26T17:06:00.257Z,10.35
2022-09-26T17:08:02.320Z,9.13
2022-09-26T17:10:04.642Z,8.85
2022-09-26T17:12:14.062Z,10.52
2022-09-26T17:14:19.399Z,12.50
2022-09-26T17:16:22.155Z,14.90
2022-09-26T17:18:29.231Z,10.70
2022-09-26T17:20:31.366Z,11.95
2022-09-26T17:22:33.384Z,10.25
2022-09-26T17:24:35.335Z,13.02
2022-09-26T17:26:37.646Z,11.93
2022-09-26T17:28:42.591Z,16.15
2022-09-26T17:30:45.192Z,13.75
2022-09-26T17:32:50.031Z,10.93
2022-09-26T17:34:52.453Z,13.38
2022-09-26T17:36:56.353Z,13.00
2022-09-26T17:39:00.170Z,14.93
2022-09-26T17:41:02.208Z,13.00
2022-09-26T17:43:05.367Z,15.80
2022-09-26T17:45:08.360Z,16.42
2022-09-26T17:47:10.763Z,14.82
2022-09-26T17:49:16.779Z,12.68
2022-09-26T17:51:21.149Z,15.40
2022-09-26T17:53:23.579Z,13.00
2022-09-26T17:55:25.567Z,11.93
2022-09-26T17:57:30.232Z,17.70
2022-09-26T17:59:33.763Z,17.13
2022-09-26T18:01:35.819Z,16.25
2022-09-26T18:03:39.610Z,12.57
2022-09-26T18:05:41.635Z,19.50
2022-09-26T18:07:43.700Z,14.10
2022-09-26T18:09:45.862Z,14.23
2022-09-26T18:11:59.742Z,17.70
2022-09-26T18:14:02.665Z,13.00
2022-09-26T18:16:05.741Z,12.25
2022-09-26T18:18:14.837Z,16.08
2022-09-26T18:20:22.918Z,21.63
2022-09-26T18:22:29.308Z,12.80
2022-09-26T18:24:31.352Z,15.88
2022-09-26T18:26:37.301Z,15.52
2022-09-26T18:28:39.285Z,17.45
2022-09-26T18:30:43.055Z,14.27
2022-09-26T18:32:47.353Z,11.93
2022-09-26T18:34:49.306Z,16.00
2022-09-26T18:36:52.702Z,19.27
2022-09-26T18:38:54.801Z,18.10
2022-09-26T18:40:58.746Z,12.90
2022-09-26T18:43:01.399Z,12.93
2022-09-26T18:45:04.584Z,22.48
2022-09-26T18:47:13.388Z,19.30
2022-09-26T18:49:15.681Z,13.55
2022-09-26T18:51:17.731Z,23.23
2022-09-26T18:53:21.590Z,19.17
2022-09-26T18:55:44.966Z,19.70
2022-09-26T18:58:05.579Z,21.10
2022-09-26T19:00:08.782Z,22.90
2022-09-26T19:02:26.286Z,23.67
2022-09-26T19:04:30.430Z,22.95
2022-09-26T19:06:37.694Z,27.27
2022-09-26T19:08:43.742Z,23.92
2022-09-26T19:10:45.696Z,21.42
2022-09-26T19:12:48.416Z,20.23
2022-09-26T19:16:52.442Z,22.25
2022-09-26T19:18:54.487Z,19.15
2022-09-26T19:20:56.467Z,16.55
2022-09-26T19:22:58.660Z,19.48
2022-09-26T19:25:00.898Z,21.17
2022-09-26T19:27:31.142Z,24.45
2022-09-26T19:30:03.043Z,23.55
2022-09-26T19:32:05.185Z,17.38
2022-09-26T19:34:07.244Z,22.52
2022-09-26T19:36:10.705Z,24.48
2022-09-26T19:38:24.067Z,21.50
2022-09-26T19:40:26.514Z,19.50
2022-09-26T19:42:28.479Z,16.67
2022-09-26T19:44:30.462Z,14.23
2022-09-26T19:46:32.497Z,20.45
2022-09-26T19:48:38.701Z,16.90
2022-09-26T19:50:41.128Z,21.75
2022-09-26T19:52:43.165Z,23.27
2022-09-26T19:54:45.457Z,26.67
2022-09-26T19:56:47.648Z,25.50
2022-09-26T19:58:50.562Z,22.17
2022-09-26T20:00:57.303Z,17.33
2022-09-26T20:02:59.323Z,21.17
2022-09-26T20:05:01.381Z,26.10
2022-09-26T20:07:03.417Z,22.40
2022-09-26T20:09:06.568Z,20.75
2022-09-26T20:11:09.197Z,14.68
2022-09-26T20:13:11.266Z,12.93
2022-09-26T20:15:13.854Z,13.45
2022-09-26T20:17:21.218Z,22.75
2022-09-26T20:19:36.282Z,21.05
2022-09-26T20:21:38.259Z,14.85
2022-09-26T20:23:46.192Z,14.35
2022-09-26T20:25:48.246Z,15.90
2022-09-26T20:27:50.266Z,21.42
2022-09-26T20:30:11.094Z,17.17
2022-09-26T20:32:15.479Z,13.48
2022-09-26T20:34:17.810Z,14.73
2022-09-26T20:36:32.551Z,14.27
2022-09-26T20:38:42.386Z,12.57
2022-09-26T20:40:46.187Z,13.45
2022-09-26T20:42:50.317Z,11.57
2022-09-26T20:44:52.269Z,15.18
2022-09-26T20:46:59.574Z,15.98
2022-09-26T20:49:03.163Z,22.35
2022-09-26T20:51:05.605Z,16.15
2022-09-26T20:53:19.917Z,16.20
2022-09-26T20:55:21.877Z,16.23
2022-09-26T20:57:24.311Z,22.05
2022-09-26T20:59:26.417Z,21.40
2022-09-26T21:01:28.851Z,17.30
2022-09-26T21:03:31.672Z,15.13
2022-09-26T21:07:35.559Z,18.60
2022-09-26T21:09:37.741Z,15.77
2022-09-26T21:11:41.589Z,19.17
2022-09-26T21:13:43.610Z,17.48
2022-09-26T21:15:45.613Z,17.13
2022-09-26T21:17:47.820Z,20.23
2022-09-26T21:19:51.269Z,16.85
2022-09-26T21:21:53.375Z,18.50
2022-09-26T21:23:55.448Z,27.88
2022-09-26T21:25:57.414Z,22.48
2022-09-26T21:28:02.530Z,19.40
2022-09-26T21:30:05.098Z,22.65
2022-09-26T21:32:08.255Z,20.67
2022-09-26T21:34:13.730Z,20.60
2022-09-26T21:36:16.011Z,19.35
2022-09-26T21:38:18.531Z,22.80
2022-09-26T21:40:20.953Z,21.00
2022-09-26T21:42:22.927Z,25.25
2022-09-26T21:44:42.273Z,27.70
2022-09-26T21:46:44.462Z,24.92
2022-09-26T21:48:46.427Z,23.33
2022-09-26T21:50:56.762Z,22.77
2022-09-26T21:53:06.009Z,32.50
2022-09-26T21:55:10.716Z,25.00
2022-09-26T21:57:22.267Z,18.45
2022-09-26T21:59:24.329Z,24.30
2022-09-26T22:01:26.358Z,25.13
2022-09-26T22:03:28.390Z,20.40
2022-09-26T22:05:31.380Z,17.98
2022-09-26T22:07:33.396Z,22.33
2022-09-26T22:09:35.429Z,18.05
2022-09-26T22:11:37.665Z,22.00
2022-09-26T22:13:39.639Z,19.55
2022-09-26T22:15:41.614Z,20.80
2022-09-26T22:17:43.563Z,18.02
2022-09-26T22:19:45.761Z,16.27
2022-09-26T22:21:47.743Z,16.38
2022-09-26T22:23:50.954Z,20.73
2022-09-26T22:25:52.959Z,23.02
2022-09-26T22:27:55.513Z,19.58
2022-09-26T22:29:57.661Z,22.48
2022-09-26T22:31:59.624Z,20.52
2022-09-26T22:34:01.571Z,29.35
2022-09-26T22:36:03.708Z,17.95
2022-09-26T22:38:05.674Z,18.70
2022-09-26T22:40:08.447Z,19.38
2022-09-26T22:46:16.394Z,22.15
2022-09-26T22:50:20.326Z,17.65
2022-09-26T22:52:22.285Z,16.70
2022-09-26T22:54:24.269Z,17.92
2022-09-26T22:56:26.215Z,22.58
2022-09-26T22:58:28.181Z,20.45
2022-09-26T23:00:30.147Z,21.33
2022-09-26T23:02:32.149Z,15.93
2022-09-26T23:04:49.683Z,21.65
2022-09-26T23:06:51.713Z,21.77
2022-09-26T23:08:54.568Z,18.90
2022-09-26T23:10:56.635Z,23.23
2022-09-26T23:12:58.638Z,21.50
2022-09-26T23:15:00.807Z,28.15
2022-09-26T23:17:03.095Z,21.33
2022-09-26T23:19:05.194Z,23.10
2022-09-26T23:21:11.530Z,22.25
2022-09-26T23:23:14.097Z,22.13
2022-09-26T23:25:16.343Z,19.40
2022-09-26T23:27:18.310Z,19.70
2022-09-26T23:29:20.312Z,20.60
2022-09-26T23:31:23.046Z,25.40
2022-09-26T23:35:26.916Z,18.77
2022-09-26T23:37:28.887Z,25.52
2022-09-26T23:39:30.854Z,22.73
2022-09-26T23:41:32.815Z,22.70
2022-09-26T23:43:34.852Z,31.58
2022-09-26T23:45:37.325Z,22.45
2022-09-26T23:47:39.444Z,28.20
2022-09-26T23:49:41.793Z,27.38
2022-09-26T23:51:43.782Z,22.08
2022-09-26T23:53:46.157Z,24.40
2022-09-26T23:55:48.093Z,27.77
2022-09-26T23:57:50.081Z,27.15
2022-09-26T23:59:52.061Z,20.10
